Montevideo, MN (56265)

3:43 AM CDT op 25 april 2015 (GMT -0500)
Near Chinhinta Park | | Change Station
CLOSE
Current Station
Persoonlijk weerstation
Location: Montevideo, MN
Geometrische hoogte: 1024 ft
Nabije weerstations

Hoogte 1024 ft 44.94 °N, 95.72 °W | Updated 4 seconds ago

Overcast
Geheel bewolkt
42.0 °F
Voelt als 42 °F
N
2.0
Wind Variabel Wind van OZO
Gusts 2.0 mijl/u

Vandaag
Hoog -- | Laag -- °F
--% Kans op neerslag
Gisteren
Hoog -- | Laag -- °F
Precip. -- inches
6:21 AM 8:20 PM
Wassende halvemaan, 44% visible
Druk 29.74 inches
Zicht 2.0 mijlen
Wolken Licht bewolkt 700 ft
Geheel bewolkt 2300 ft
Gevoelstemperatuur 42 °F
Dauwpunt 41 °F
Vochtigheid 96%
Neerslag 0.07 inches
Dikte sneeuw Niet beschikbaar.
UV 0 van de 12
Pollen 8.80 van de 12
Luchtkwaliteit Niet beschikbaar.
Flu Activity Local Activity
METAR KMVE 250834Z AUTO 13011KT 2SM BR SCT007 OVC023 06/06 A2974 RMK AO2 LTG DSNT SE

More Conditions Fewer Conditions

Druk 29.74 inches
Zicht 2.0 mijlen
Wolken Licht bewolkt 700 ft
Geheel bewolkt 2300 ft
Gevoelstemperatuur 42 °F
Dauwpunt 41 °F
Vochtigheid 96%
Neerslag 0.07 inches
Dikte sneeuw Niet beschikbaar.
UV 0 van de 12
Pollen 8.80 van de 12
Luchtkwaliteit Niet beschikbaar.
Flu Activity Local Activity
METAR KMVE 250834Z AUTO 13011KT 2SM BR SCT007 OVC023 06/06 A2974 RMK AO2 LTG DSNT SE

More Conditions Fewer Conditions

10-Day Weather Forecast

Almanac

Astronomie

Apr. 25, 2015 Opkomst Ondergang
Werkelijke tijd
Burgerlijke schemering
Nautische schemering
Astronomische schemering
Maan
Golflengte van het zichtbare licht
Daglengte
Tomorrow will be .
, % of the Moon is Illuminated

Extremen vandaag

State Highs State Lows

Community

WunderPhotos

Upload Photos

1,816,624 foto’s ge-upload!

WunderBlogs® & News

Nearby

Luchtkwaliteit

  Luchtkwaliteit LK-index Verontreinigende stof
Not available.

Dikte sneeuw

Station Depth Geometrische hoogte

Aardbevingen

Stad Distance Mag. Time & Date
Minimum magnitude displayed is 2.5.

Watertemperatuur langs de kust

Plaats Temperatuur

Stations

Nabije weerstations

Locatie station Temp. Gevoelstemperatuur Dauwpunt Vochtigheid Wind Precip. Hoogte Geactualiseerd Type